createdAt,value
2023-05-19T00:01:15.290Z,48.29
2023-05-19T00:03:55.206Z,48.24
2023-05-19T00:06:26.777Z,48.21
2023-05-19T00:08:57.597Z,48.23
2023-05-19T00:11:26.515Z,48.24
2023-05-19T00:14:00.612Z,48.24
2023-05-19T00:16:28.034Z,48.28
2023-05-19T00:18:55.035Z,48.35
2023-05-19T00:21:21.711Z,48.36
2023-05-19T00:23:48.339Z,48.35
2023-05-19T00:26:15.008Z,48.29
2023-05-19T00:28:41.652Z,48.32
2023-05-19T00:31:08.348Z,48.32
2023-05-19T00:33:35.232Z,48.31
2023-05-19T00:36:03.458Z,48.26
2023-05-19T00:38:35.239Z,48.29
2023-05-19T00:41:02.326Z,48.27
2023-05-19T00:43:30.229Z,48.27
2023-05-19T00:45:57.670Z,48.26
2023-05-19T00:48:25.421Z,48.28
2023-05-19T00:50:53.332Z,48.28
2023-05-19T00:53:19.965Z,48.28
2023-05-19T00:55:46.689Z,48.32
2023-05-19T00:58:13.318Z,48.36
2023-05-19T01:00:40.154Z,48.36
2023-05-19T01:03:11.588Z,48.36
2023-05-19T01:05:42.054Z,48.37
2023-05-19T01:08:08.919Z,48.39
2023-05-19T01:10:35.643Z,48.40
2023-05-19T01:13:03.271Z,48.41
2023-05-19T01:15:32.528Z,48.43
2023-05-19T01:18:07.467Z,48.43
2023-05-19T01:20:46.501Z,48.45
2023-05-19T01:23:36.735Z,48.46
2023-05-19T01:26:21.657Z,48.45
2023-05-19T01:29:00.434Z,48.43
2023-05-19T01:31:27.156Z,48.43
2023-05-19T01:33:54.279Z,48.45
2023-05-19T01:36:22.434Z,48.44
2023-05-19T01:38:51.519Z,48.44
2023-05-19T01:41:19.372Z,48.43
2023-05-19T01:43:46.063Z,48.46
2023-05-19T01:46:12.878Z,48.47
2023-05-19T01:48:39.524Z,48.45
2023-05-19T01:51:06.325Z,48.44
2023-05-19T01:53:33.559Z,48.45
2023-05-19T01:56:00.829Z,48.47
2023-05-19T01:58:38.212Z,48.45
2023-05-19T02:01:22.285Z,48.47
2023-05-19T02:04:09.265Z,48.49
2023-05-19T02:06:41.723Z,48.48
2023-05-19T02:09:13.458Z,48.50
2023-05-19T02:11:53.478Z,48.51
2023-05-19T02:14:21.700Z,48.50
2023-05-19T02:16:48.593Z,48.55
2023-05-19T02:19:26.576Z,48.54
2023-05-19T02:21:53.320Z,48.55
2023-05-19T02:24:20.247Z,48.52
2023-05-19T02:26:46.950Z,48.56
2023-05-19T02:29:13.604Z,48.57
2023-05-19T02:31:40.316Z,48.56
2023-05-19T02:34:08.681Z,48.57
2023-05-19T02:36:36.695Z,48.59
2023-05-19T02:39:04.037Z,48.61
2023-05-19T02:41:30.777Z,48.61
2023-05-19T02:43:58.052Z,48.62
2023-05-19T02:46:24.753Z,48.61
2023-05-19T02:48:52.250Z,48.64
2023-05-19T02:51:21.228Z,48.63
2023-05-19T02:53:50.210Z,48.65
2023-05-19T02:56:17.117Z,48.66
2023-05-19T02:58:43.858Z,48.66
2023-05-19T03:01:11.165Z,48.70
2023-05-19T03:03:38.220Z,48.70
2023-05-19T03:06:05.057Z,48.69
2023-05-19T03:08:31.781Z,48.68
2023-05-19T03:11:00.469Z,48.71
2023-05-19T03:13:27.308Z,48.73
2023-05-19T03:15:53.955Z,48.72
2023-05-19T03:18:20.744Z,48.73
2023-05-19T03:20:49.559Z,48.73
2023-05-19T03:23:16.384Z,48.73
2023-05-19T03:25:42.992Z,48.75
2023-05-19T03:28:10.211Z,48.76
2023-05-19T03:30:37.277Z,48.77
2023-05-19T03:33:05.465Z,48.77
2023-05-19T03:35:32.193Z,48.76
2023-05-19T03:37:58.940Z,48.79
2023-05-19T03:40:25.770Z,48.79
2023-05-19T03:42:54.312Z,48.78
2023-05-19T03:45:21.214Z,48.79
2023-05-19T03:47:48.687Z,48.80
2023-05-19T03:50:15.387Z,48.84
2023-05-19T03:52:45.506Z,48.85
2023-05-19T03:55:12.643Z,48.87
2023-05-19T03:57:41.399Z,48.83
2023-05-19T04:00:11.211Z,48.81
2023-05-19T04:02:38.181Z,48.86
2023-05-19T04:05:05.376Z,48.87
2023-05-19T04:07:32.073Z,48.89
2023-05-19T04:09:58.839Z,48.87
2023-05-19T04:12:25.496Z,48.90
2023-05-19T04:14:52.173Z,48.89
2023-05-19T04:17:18.865Z,48.92
2023-05-19T04:19:45.555Z,48.90
2023-05-19T04:22:12.262Z,48.89
2023-05-19T04:24:38.991Z,48.88
2023-05-19T04:27:05.925Z,48.87
2023-05-19T04:29:32.671Z,48.87
2023-05-19T04:32:00.928Z,48.87
2023-05-19T04:34:28.784Z,48.76
2023-05-19T04:36:55.587Z,48.80
2023-05-19T04:39:22.278Z,51.95
2023-05-19T04:41:49.009Z,52.46
2023-05-19T04:44:18.220Z,51.93
2023-05-19T04:46:45.349Z,52.00
2023-05-19T04:49:14.699Z,51.87
2023-05-19T04:51:41.615Z,52.20
2023-05-19T04:54:08.649Z,52.23
2023-05-19T04:56:35.593Z,52.26
2023-05-19T04:59:02.240Z,52.71
2023-05-19T05:01:31.456Z,52.40
2023-05-19T05:03:59.266Z,52.48
2023-05-19T05:06:26.608Z,52.22
2023-05-19T05:08:53.534Z,52.20
2023-05-19T05:11:20.698Z,51.88
2023-05-19T05:13:47.896Z,51.70
2023-05-19T05:16:15.318Z,52.06
2023-05-19T05:18:44.671Z,51.64
2023-05-19T05:21:12.413Z,51.24
2023-05-19T05:23:39.324Z,51.07
2023-05-19T05:26:15.016Z,50.63
2023-05-19T05:28:41.660Z,50.27
2023-05-19T05:31:08.332Z,50.24
2023-05-19T05:33:35.061Z,50.23
2023-05-19T05:36:01.790Z,50.21
2023-05-19T05:38:31.110Z,49.77
2023-05-19T05:40:57.718Z,49.74
2023-05-19T05:43:24.430Z,49.98
2023-05-19T05:45:51.195Z,49.67
2023-05-19T05:48:18.190Z,49.67
2023-05-19T05:50:45.570Z,49.72
2023-05-19T05:53:20.795Z,49.85
2023-05-19T05:55:47.993Z,49.87
2023-05-19T05:58:15.686Z,49.71
2023-05-19T06:00:47.958Z,49.69
2023-05-19T06:03:14.753Z,49.59
2023-05-19T06:05:41.523Z,49.27
2023-05-19T06:08:08.291Z,49.08
2023-05-19T06:10:36.850Z,49.13
2023-05-19T06:13:03.610Z,48.94
2023-05-19T06:15:30.319Z,49.31
2023-05-19T06:17:59.716Z,49.11
2023-05-19T06:20:26.602Z,49.07
2023-05-19T06:22:53.382Z,49.13
2023-05-19T06:25:20.866Z,48.68
2023-05-19T06:27:47.644Z,48.54
2023-05-19T06:30:14.569Z,48.35
2023-05-19T06:32:41.391Z,48.58
2023-05-19T06:35:08.389Z,48.76
2023-05-19T06:37:35.061Z,48.50
2023-05-19T06:40:01.794Z,48.59
2023-05-19T06:42:28.466Z,48.38
2023-05-19T06:44:57.893Z,48.28
2023-05-19T06:47:24.609Z,47.88
2023-05-19T06:49:55.345Z,48.14
2023-05-19T06:52:22.540Z,48.37
2023-05-19T06:54:49.678Z,48.33
2023-05-19T06:57:16.352Z,48.14
2023-05-19T06:59:43.612Z,48.05
2023-05-19T07:02:10.437Z,48.22
2023-05-19T07:04:37.239Z,48.06
2023-05-19T07:07:04.172Z,47.89
2023-05-19T07:09:30.946Z,48.17
2023-05-19T07:11:57.722Z,48.28
2023-05-19T07:14:26.656Z,48.18
2023-05-19T07:16:53.663Z,48.40
2023-05-19T07:19:20.674Z,48.47
2023-05-19T07:21:47.592Z,48.65
2023-05-19T07:24:14.243Z,48.73
2023-05-19T07:26:41.504Z,48.51
2023-05-19T07:29:08.216Z,49.07
2023-05-19T07:31:34.886Z,49.27
2023-05-19T07:34:01.700Z,49.09
2023-05-19T07:36:28.350Z,49.23
2023-05-19T07:38:55.022Z,49.51
2023-05-19T07:41:21.937Z,49.26
2023-05-19T07:43:49.245Z,49.15
2023-05-19T07:46:16.398Z,49.08
2023-05-19T07:48:43.079Z,49.36
2023-05-19T07:51:12.844Z,49.10
2023-05-19T07:53:39.648Z,49.05
2023-05-19T07:56:06.633Z,49.07
2023-05-19T07:58:33.392Z,49.34
2023-05-19T08:01:00.612Z,49.31
2023-05-19T08:03:27.653Z,49.01
2023-05-19T08:05:54.545Z,48.82
2023-05-19T08:08:21.988Z,49.08
2023-05-19T08:10:48.784Z,49.42
2023-05-19T08:13:24.839Z,49.12
2023-05-19T08:15:51.698Z,48.94
2023-05-19T08:18:18.445Z,49.06
2023-05-19T08:20:46.373Z,49.34
2023-05-19T08:23:13.109Z,49.42
2023-05-19T08:25:40.691Z,49.32
2023-05-19T08:28:10.493Z,49.61
2023-05-19T08:30:37.135Z,49.52
2023-05-19T08:33:03.888Z,49.49
2023-05-19T08:35:30.784Z,49.44
2023-05-19T08:37:57.453Z,49.28
2023-05-19T08:40:24.194Z,49.55
2023-05-19T08:42:51.369Z,49.55
2023-05-19T08:45:18.217Z,49.49
2023-05-19T08:47:48.228Z,49.52
2023-05-19T08:50:18.960Z,49.65
2023-05-19T08:53:28.957Z,49.58
2023-05-19T08:56:10.656Z,49.57
2023-05-19T08:58:43.705Z,49.56
2023-05-19T09:01:14.232Z,49.66
2023-05-19T09:03:41.372Z,49.46
2023-05-19T09:06:09.012Z,49.40
2023-05-19T09:08:36.589Z,49.34
2023-05-19T09:11:03.371Z,49.14
2023-05-19T09:13:30.020Z,49.01
2023-05-19T09:15:57.457Z,48.88
2023-05-19T09:18:27.264Z,48.67
2023-05-19T09:21:00.752Z,48.50
2023-05-19T09:23:34.131Z,48.37
2023-05-19T09:26:07.151Z,48.16
2023-05-19T09:28:34.745Z,47.82
2023-05-19T09:31:11.349Z,47.83
2023-05-19T09:33:42.897Z,47.60
2023-05-19T09:36:11.663Z,47.56
2023-05-19T09:38:38.764Z,47.42
2023-05-19T09:41:06.518Z,47.35
2023-05-19T09:43:33.935Z,47.24
2023-05-19T09:46:03.473Z,46.62
2023-05-19T09:48:30.615Z,46.97
2023-05-19T09:50:57.915Z,47.34
2023-05-19T09:53:25.300Z,47.36
2023-05-19T09:55:55.517Z,47.31
2023-05-19T09:58:22.345Z,47.29
2023-05-19T10:00:48.996Z,47.27
2023-05-19T10:03:16.526Z,47.45
2023-05-19T10:05:43.369Z,47.60
2023-05-19T10:08:10.556Z,47.72
2023-05-19T10:10:38.062Z,47.64
2023-05-19T10:13:05.382Z,47.71
2023-05-19T10:15:33.242Z,47.76
2023-05-19T10:18:03.481Z,47.70
2023-05-19T10:20:30.734Z,47.75
2023-05-19T10:22:57.606Z,47.78
2023-05-19T10:25:24.280Z,47.83
2023-05-19T10:27:59.315Z,47.88
2023-05-19T10:30:31.878Z,47.97
2023-05-19T10:32:59.087Z,48.04
2023-05-19T10:35:45.390Z,48.05
2023-05-19T10:38:33.855Z,48.03
2023-05-19T10:41:23.276Z,48.17
2023-05-19T10:44:21.428Z,48.37
2023-05-19T10:46:48.109Z,48.39
2023-05-19T10:49:23.640Z,48.35
2023-05-19T10:51:51.889Z,48.25
2023-05-19T10:54:19.608Z,48.23
2023-05-19T10:56:47.578Z,48.17
2023-05-19T10:59:33.758Z,48.14
2023-05-19T11:02:06.677Z,48.06
2023-05-19T11:04:40.102Z,48.06
2023-05-19T11:07:09.369Z,48.05
2023-05-19T11:09:40.940Z,48.22
2023-05-19T11:12:08.794Z,48.35
2023-05-19T11:14:35.568Z,48.43
2023-05-19T11:17:02.368Z,48.53
2023-05-19T11:19:35.556Z,48.55
2023-05-19T11:22:12.299Z,48.65
2023-05-19T11:24:40.110Z,48.74
2023-05-19T11:27:33.095Z,48.80
2023-05-19T11:30:11.746Z,48.79
2023-05-19T11:32:44.483Z,48.79
2023-05-19T11:35:11.478Z,48.79
2023-05-19T11:37:40.425Z,48.82
2023-05-19T11:40:07.723Z,48.90
2023-05-19T11:42:37.227Z,49.00
2023-05-19T11:45:04.734Z,49.06
2023-05-19T11:47:39.116Z,48.94
2023-05-19T11:50:13.984Z,49.09
2023-05-19T11:52:44.748Z,49.25
2023-05-19T11:55:16.209Z,49.08
2023-05-19T11:58:02.812Z,48.84
2023-05-19T12:00:34.906Z,49.01
2023-05-19T12:03:01.796Z,48.73
2023-05-19T12:05:29.320Z,48.79
2023-05-19T12:07:56.063Z,48.87
2023-05-19T12:10:31.142Z,48.80
2023-05-19T12:12:58.676Z,48.96
2023-05-19T12:15:25.567Z,48.85
2023-05-19T12:17:56.971Z,48.87
2023-05-19T12:20:23.676Z,48.94
2023-05-19T12:22:51.043Z,48.94
2023-05-19T12:25:17.933Z,49.02
2023-05-19T12:27:44.811Z,49.02
2023-05-19T12:30:12.818Z,49.04
2023-05-19T12:32:39.555Z,49.05
2023-05-19T12:35:07.001Z,49.00
2023-05-19T12:37:34.889Z,48.99
2023-05-19T12:40:02.105Z,49.00
2023-05-19T12:42:31.400Z,48.98
2023-05-19T12:45:00.865Z,49.04
2023-05-19T12:47:33.439Z,48.93
2023-05-19T12:50:00.290Z,49.01
2023-05-19T12:52:27.808Z,49.00
2023-05-19T12:55:01.641Z,49.01
2023-05-19T12:57:32.112Z,49.08
2023-05-19T13:00:15.063Z,49.00
2023-05-19T13:02:55.957Z,49.02
2023-05-19T13:05:23.058Z,48.93
2023-05-19T13:08:00.538Z,48.96
2023-05-19T13:10:27.692Z,48.89
2023-05-19T13:12:58.076Z,48.91
2023-05-19T13:15:26.323Z,48.98
2023-05-19T13:17:53.325Z,48.99
2023-05-19T13:20:20.848Z,49.05
2023-05-19T13:22:48.106Z,49.02
2023-05-19T13:25:14.850Z,49.02
2023-05-19T13:27:41.577Z,48.96
2023-05-19T13:30:08.784Z,49.03
2023-05-19T13:32:35.447Z,49.06
2023-05-19T13:35:02.349Z,49.13
2023-05-19T13:37:29.273Z,49.08
2023-05-19T13:39:56.022Z,49.11
2023-05-19T13:42:22.746Z,49.12
2023-05-19T13:44:49.488Z,49.09
2023-05-19T13:47:16.376Z,49.07
2023-05-19T13:49:43.144Z,49.11
2023-05-19T13:52:09.807Z,49.12
2023-05-19T13:54:36.593Z,49.17
2023-05-19T13:57:03.314Z,49.13
2023-05-19T13:59:30.186Z,49.13
2023-05-19T14:01:57.195Z,49.13
2023-05-19T14:04:24.692Z,49.16
2023-05-19T14:06:51.438Z,49.17
2023-05-19T14:09:18.290Z,49.16
2023-05-19T14:11:44.896Z,49.16
2023-05-19T14:14:11.802Z,49.18
2023-05-19T14:16:38.974Z,49.18
2023-05-19T14:19:05.684Z,49.17
2023-05-19T14:21:32.790Z,49.25
2023-05-19T14:23:59.527Z,49.24
2023-05-19T14:26:28.626Z,49.22
2023-05-19T14:28:57.124Z,49.18
2023-05-19T14:31:23.827Z,49.18
2023-05-19T14:33:51.315Z,49.17
2023-05-19T14:36:18.111Z,49.17
2023-05-19T14:38:44.841Z,49.17
2023-05-19T14:41:14.751Z,49.15
2023-05-19T14:43:43.160Z,49.19
2023-05-19T14:46:09.885Z,49.19
2023-05-19T14:48:36.639Z,49.16
2023-05-19T14:51:03.436Z,49.16
2023-05-19T14:53:30.154Z,49.16
2023-05-19T14:55:56.832Z,49.16
2023-05-19T14:58:28.968Z,49.15
2023-05-19T15:01:00.910Z,49.12
2023-05-19T15:03:27.615Z,49.17
2023-05-19T15:05:54.345Z,49.10
2023-05-19T15:08:21.031Z,49.11
2023-05-19T15:10:50.691Z,49.11
2023-05-19T15:13:19.069Z,49.16
2023-05-19T15:15:46.137Z,49.11
2023-05-19T15:18:13.234Z,49.06
2023-05-19T15:20:40.144Z,49.10
2023-05-19T15:23:06.801Z,49.11
2023-05-19T15:25:33.526Z,49.08
2023-05-19T15:28:00.220Z,49.05
2023-05-19T15:30:28.889Z,49.03
2023-05-19T15:32:55.799Z,49.05
2023-05-19T15:35:22.492Z,49.04
2023-05-19T15:37:49.143Z,49.06
2023-05-19T15:40:15.939Z,49.05
2023-05-19T15:42:42.571Z,49.05
2023-05-19T15:45:09.736Z,49.06
2023-05-19T15:47:36.448Z,49.08
2023-05-19T15:50:03.466Z,49.07
2023-05-19T15:52:30.124Z,49.09
2023-05-19T15:54:59.099Z,49.06
2023-05-19T15:57:25.924Z,49.06
2023-05-19T15:59:52.581Z,49.04
2023-05-19T16:02:19.793Z,49.05
2023-05-19T16:04:46.538Z,49.03
2023-05-19T16:07:13.161Z,49.05
2023-05-19T16:09:39.803Z,49.05
2023-05-19T16:12:06.838Z,49.05
2023-05-19T16:14:36.468Z,49.02
2023-05-19T16:17:03.918Z,49.02
2023-05-19T16:19:30.743Z,49.00
2023-05-19T16:21:57.600Z,48.97
2023-05-19T16:24:24.829Z,48.99
2023-05-19T16:26:53.724Z,48.94
2023-05-19T16:29:20.534Z,48.92
2023-05-19T16:31:49.912Z,48.94
2023-05-19T16:34:16.829Z,48.92
2023-05-19T16:36:43.553Z,48.94
2023-05-19T16:39:10.180Z,48.94
2023-05-19T16:41:36.944Z,48.90
2023-05-19T16:44:03.604Z,48.89
2023-05-19T16:46:31.541Z,48.89
2023-05-19T16:48:58.591Z,48.90
2023-05-19T16:51:25.268Z,48.90
2023-05-19T16:53:52.052Z,48.87
2023-05-19T16:56:18.777Z,48.86
2023-05-19T16:58:45.611Z,48.85
2023-05-19T17:01:12.494Z,48.87
2023-05-19T17:03:39.358Z,48.87
2023-05-19T17:06:06.231Z,48.88
2023-05-19T17:08:32.930Z,48.86
2023-05-19T17:10:59.587Z,48.83
2023-05-19T17:13:28.334Z,48.85
2023-05-19T17:15:55.040Z,48.84
2023-05-19T17:18:22.960Z,48.81
2023-05-19T17:20:49.575Z,48.80
2023-05-19T17:23:16.266Z,48.79
2023-05-19T17:25:42.886Z,48.78
2023-05-19T17:28:09.645Z,48.78
2023-05-19T17:30:36.341Z,48.78
2023-05-19T17:33:03.803Z,48.76
2023-05-19T17:35:30.763Z,48.76
2023-05-19T17:37:58.009Z,48.76
2023-05-19T17:40:24.720Z,48.76
2023-05-19T17:42:51.373Z,48.76
2023-05-19T17:45:18.233Z,48.75
2023-05-19T17:47:44.971Z,48.73
2023-05-19T17:50:11.737Z,48.75
2023-05-19T17:52:40.195Z,48.73
2023-05-19T17:55:07.698Z,48.74
2023-05-19T17:57:34.450Z,48.75
2023-05-19T18:00:01.577Z,48.74
2023-05-19T18:02:28.484Z,48.75
2023-05-19T18:04:55.707Z,48.73
2023-05-19T18:07:24.997Z,48.74
2023-05-19T18:09:51.811Z,48.74
2023-05-19T18:12:18.552Z,48.77
2023-05-19T18:14:45.220Z,48.77
2023-05-19T18:17:11.927Z,48.74
2023-05-19T18:19:38.682Z,48.74
2023-05-19T18:22:05.688Z,48.74
2023-05-19T18:24:32.302Z,48.75
2023-05-19T18:26:59.175Z,48.75
2023-05-19T18:29:25.896Z,48.75
2023-05-19T18:31:52.750Z,48.78
2023-05-19T18:34:19.525Z,48.79
2023-05-19T18:36:46.177Z,48.79
2023-05-19T18:39:12.837Z,48.81
2023-05-19T18:41:42.698Z,48.82
2023-05-19T18:44:09.573Z,48.85
2023-05-19T18:46:36.206Z,48.84
2023-05-19T18:49:03.839Z,48.90
2023-05-19T18:51:35.022Z,48.97
2023-05-19T18:54:01.791Z,49.12
2023-05-19T18:56:31.013Z,49.28
2023-05-19T18:59:00.320Z,49.39
2023-05-19T19:01:27.058Z,49.51
2023-05-19T19:03:53.756Z,49.72
2023-05-19T19:06:23.473Z,49.85
2023-05-19T19:08:50.465Z,50.12
2023-05-19T19:11:17.243Z,50.32
2023-05-19T19:13:43.930Z,50.48
2023-05-19T19:16:10.888Z,50.56
2023-05-19T19:18:37.686Z,50.62
2023-05-19T19:21:05.887Z,50.61
2023-05-19T19:23:32.899Z,50.69
2023-05-19T19:25:59.865Z,50.66
2023-05-19T19:28:26.921Z,50.69
2023-05-19T19:30:53.585Z,50.69
2023-05-19T19:33:20.630Z,50.72
2023-05-19T19:35:47.362Z,50.74
2023-05-19T19:38:14.196Z,50.76
2023-05-19T19:40:40.852Z,50.76
2023-05-19T19:43:07.530Z,50.78
2023-05-19T19:45:34.969Z,50.82
2023-05-19T19:48:01.891Z,50.84
2023-05-19T19:50:31.101Z,50.87
2023-05-19T19:52:57.872Z,50.88
2023-05-19T19:55:24.487Z,50.88
2023-05-19T19:57:51.390Z,50.90
2023-05-19T20:00:18.520Z,50.92
2023-05-19T20:03:03.769Z,50.92
2023-05-19T20:05:31.390Z,50.96
2023-05-19T20:07:58.049Z,50.93
2023-05-19T20:10:24.695Z,50.92
2023-05-19T20:12:52.054Z,50.89
2023-05-19T20:15:19.008Z,50.88
2023-05-19T20:17:45.990Z,50.86
2023-05-19T20:20:15.185Z,50.90
2023-05-19T20:22:44.405Z,50.97
2023-05-19T20:25:16.308Z,50.96
2023-05-19T20:27:43.126Z,50.97
2023-05-19T20:30:10.102Z,50.97
2023-05-19T20:32:36.818Z,51.02
2023-05-19T20:35:03.509Z,50.94
2023-05-19T20:37:30.619Z,50.93
2023-05-19T20:39:57.271Z,50.85
2023-05-19T20:42:26.780Z,50.81
2023-05-19T20:44:53.468Z,50.80
2023-05-19T20:47:21.042Z,50.78
2023-05-19T20:49:50.864Z,50.78
2023-05-19T20:52:17.759Z,50.82
2023-05-19T20:54:45.413Z,50.73
2023-05-19T20:57:12.734Z,50.76
2023-05-19T20:59:39.518Z,50.74
2023-05-19T21:02:07.665Z,50.70
2023-05-19T21:04:34.520Z,50.62
2023-05-19T21:07:01.381Z,50.62
2023-05-19T21:09:28.103Z,50.65
2023-05-19T21:11:54.745Z,50.66
2023-05-19T21:14:21.780Z,50.67
2023-05-19T21:16:49.306Z,50.69
2023-05-19T21:19:16.278Z,50.66
2023-05-19T21:21:44.844Z,50.66
2023-05-19T21:24:12.863Z,50.58
2023-05-19T21:26:40.033Z,50.58
2023-05-19T21:29:07.152Z,50.61
2023-05-19T21:31:35.345Z,50.57
2023-05-19T21:34:07.672Z,50.60
2023-05-19T21:36:35.278Z,50.53
2023-05-19T21:39:01.990Z,50.49
2023-05-19T21:41:28.755Z,50.46
2023-05-19T21:43:57.722Z,50.45
2023-05-19T21:46:24.524Z,50.46
2023-05-19T21:48:51.310Z,50.46
2023-05-19T21:51:20.040Z,50.43
2023-05-19T21:53:46.648Z,50.42
2023-05-19T21:56:13.387Z,50.40
2023-05-19T21:58:40.114Z,50.39
2023-05-19T22:01:07.980Z,50.33
2023-05-19T22:03:34.754Z,50.37
2023-05-19T22:06:01.770Z,50.36
2023-05-19T22:08:28.676Z,50.32
2023-05-19T22:10:55.765Z,50.32
2023-05-19T22:13:22.555Z,50.33
2023-05-19T22:15:49.406Z,50.27
2023-05-19T22:18:16.846Z,50.29
2023-05-19T22:20:43.580Z,50.32
2023-05-19T22:23:10.769Z,50.33
2023-05-19T22:25:37.636Z,50.30
2023-05-19T22:28:07.454Z,50.33
2023-05-19T22:30:40.824Z,50.31
2023-05-19T22:33:12.028Z,50.29
2023-05-19T22:35:38.740Z,50.28
2023-05-19T22:38:05.708Z,50.31
2023-05-19T22:40:32.906Z,50.30
2023-05-19T22:42:59.686Z,50.31
2023-05-19T22:45:26.350Z,50.31
2023-05-19T22:47:57.697Z,50.31
2023-05-19T22:50:24.400Z,50.36
2023-05-19T22:52:51.124Z,50.36
2023-05-19T22:55:17.802Z,50.33
2023-05-19T22:57:44.565Z,50.34
2023-05-19T23:00:16.426Z,50.32
2023-05-19T23:02:43.204Z,50.36
2023-05-19T23:05:10.161Z,50.33
2023-05-19T23:07:36.871Z,50.36
2023-05-19T23:10:05.962Z,50.39
2023-05-19T23:12:32.719Z,50.40
2023-05-19T23:14:59.394Z,50.40
2023-05-19T23:17:26.408Z,50.44
2023-05-19T23:19:53.123Z,50.43
2023-05-19T23:22:19.922Z,50.52
2023-05-19T23:24:46.698Z,50.49
2023-05-19T23:27:13.401Z,50.49
2023-05-19T23:29:40.097Z,50.49
2023-05-19T23:32:07.297Z,50.53
2023-05-19T23:34:33.920Z,50.52
2023-05-19T23:37:00.578Z,50.55
2023-05-19T23:39:27.980Z,50.61
2023-05-19T23:41:54.643Z,50.58
2023-05-19T23:44:21.350Z,50.61
2023-05-19T23:46:48.100Z,50.66
2023-05-19T23:49:14.893Z,50.70
2023-05-19T23:51:41.530Z,50.78
2023-05-19T23:54:08.180Z,50.78
2023-05-19T23:56:34.934Z,50.68
2023-05-19T23:59:01.609Z,50.76
